sensor_id;sensor_type;location;lat;lon;timestamp;pressure;altitude;pressure_sealevel;temperature;humidity
69153;BME280;56261;51.580;4.578;2023-05-02T00:02:10;102155.09;;;10.22;100.00
69153;BME280;56261;51.580;4.578;2023-05-02T00:04:35;102166.03;;;10.19;100.00
69153;BME280;56261;51.580;4.578;2023-05-02T00:07:01;102170.66;;;10.17;100.00
69153;BME280;56261;51.580;4.578;2023-05-02T00:09:28;102165.41;;;10.06;100.00
69153;BME280;56261;51.580;4.578;2023-05-02T00:11:53;102177.69;;;10.18;100.00
69153;BME280;56261;51.580;4.578;2023-05-02T00:14:18;102177.00;;;10.26;100.00
69153;BME280;56261;51.580;4.578;2023-05-02T00:16:44;102176.16;;;10.25;100.00
69153;BME280;56261;51.580;4.578;2023-05-02T00:19:10;102182.09;;;10.29;100.00
69153;BME280;56261;51.580;4.578;2023-05-02T00:21:35;102178.25;;;10.22;100.00
69153;BME280;56261;51.580;4.578;2023-05-02T00:24:01;102176.28;;;10.24;100.00
69153;BME280;56261;51.580;4.578;2023-05-02T00:26:26;102187.19;;;10.32;100.00
69153;BME280;56261;51.580;4.578;2023-05-02T00:28:53;102177.41;;;10.21;100.00
69153;BME280;56261;51.580;4.578;2023-05-02T00:31:18;102182.84;;;10.10;100.00
69153;BME280;56261;51.580;4.578;2023-05-02T00:33:43;102185.91;;;10.05;100.00
69153;BME280;56261;51.580;4.578;2023-05-02T00:36:14;102187.72;;;10.05;100.00
69153;BME280;56261;51.580;4.578;2023-05-02T00:38:40;102190.53;;;10.03;100.00
69153;BME280;56261;51.580;4.578;2023-05-02T00:41:05;102192.19;;;10.04;100.00
69153;BME280;56261;51.580;4.578;2023-05-02T00:43:31;102180.09;;;10.00;100.00
69153;BME280;56261;51.580;4.578;2023-05-02T00:45:57;102189.72;;;10.12;100.00
69153;BME280;56261;51.580;4.578;2023-05-02T00:48:23;102192.25;;;10.14;100.00
69153;BME280;56261;51.580;4.578;2023-05-02T00:50:49;102183.88;;;10.18;100.00
69153;BME280;56261;51.580;4.578;2023-05-02T00:53:15;102177.13;;;10.24;100.00
69153;BME280;56261;51.580;4.578;2023-05-02T00:55:40;102173.50;;;10.25;100.00
69153;BME280;56261;51.580;4.578;2023-05-02T00:58:13;102175.59;;;10.22;100.00
69153;BME280;56261;51.580;4.578;2023-05-02T01:06:01;102167.69;;;10.10;100.00
69153;BME280;56261;51.580;4.578;2023-05-02T01:08:51;102170.13;;;10.23;100.00
69153;BME280;56261;51.580;4.578;2023-05-02T01:11:33;102170.94;;;10.14;100.00
69153;BME280;56261;51.580;4.578;2023-05-02T01:14:04;102173.81;;;10.01;100.00
69153;BME280;56261;51.580;4.578;2023-05-02T01:16:31;102169.72;;;9.97;100.00
69153;BME280;56261;51.580;4.578;2023-05-02T01:18:58;102172.78;;;9.92;100.00
69153;BME280;56261;51.580;4.578;2023-05-02T01:21:24;102175.56;;;9.91;100.00
69153;BME280;56261;51.580;4.578;2023-05-02T01:26:47;102160.06;;;9.96;100.00
69153;BME280;56261;51.580;4.578;2023-05-02T01:29:16;102159.88;;;9.88;100.00
69153;BME280;56261;51.580;4.578;2023-05-02T01:31:45;102149.47;;;9.85;100.00
69153;BME280;56261;51.580;4.578;2023-05-02T01:34:12;102155.25;;;9.90;100.00
69153;BME280;56261;51.580;4.578;2023-05-02T01:36:41;102168.06;;;9.75;100.00
69153;BME280;56261;51.580;4.578;2023-05-02T01:39:09;102170.16;;;9.71;100.00
69153;BME280;56261;51.580;4.578;2023-05-02T01:41:36;102190.41;;;9.84;100.00
69153;BME280;56261;51.580;4.578;2023-05-02T01:44:04;102193.50;;;9.89;100.00
69153;BME280;56261;51.580;4.578;2023-05-02T01:46:35;102204.50;;;9.95;100.00
69153;BME280;56261;51.580;4.578;2023-05-02T01:49:05;102197.38;;;9.96;100.00
69153;BME280;56261;51.580;4.578;2023-05-02T01:51:32;102216.09;;;10.15;100.00
69153;BME280;56261;51.580;4.578;2023-05-02T01:54:01;102201.75;;;10.07;100.00
69153;BME280;56261;51.580;4.578;2023-05-02T01:56:31;102222.22;;;10.06;100.00
69153;BME280;56261;51.580;4.578;2023-05-02T01:58:58;102220.56;;;10.05;100.00
69153;BME280;56261;51.580;4.578;2023-05-02T02:01:26;102222.44;;;10.14;100.00
69153;BME280;56261;51.580;4.578;2023-05-02T02:03:57;102216.06;;;10.06;100.00
69153;BME280;56261;51.580;4.578;2023-05-02T02:06:24;102230.31;;;10.16;100.00
69153;BME280;56261;51.580;4.578;2023-05-02T02:08:51;102229.50;;;10.04;100.00
69153;BME280;56261;51.580;4.578;2023-05-02T02:11:31;102236.78;;;10.02;100.00
69153;BME280;56261;51.580;4.578;2023-05-02T02:14:02;102250.75;;;10.15;100.00
69153;BME280;56261;51.580;4.578;2023-05-02T02:16:32;102248.97;;;10.16;100.00
69153;BME280;56261;51.580;4.578;2023-05-02T02:19:03;102251.63;;;10.16;100.00
69153;BME280;56261;51.580;4.578;2023-05-02T02:21:31;102246.84;;;10.19;100.00
69153;BME280;56261;51.580;4.578;2023-05-02T02:24:01;102259.47;;;10.17;100.00
69153;BME280;56261;51.580;4.578;2023-05-02T02:26:27;102252.19;;;10.19;100.00
69153;BME280;56261;51.580;4.578;2023-05-02T02:28:52;102254.31;;;10.16;100.00
69153;BME280;56261;51.580;4.578;2023-05-02T02:31:18;102258.13;;;10.23;100.00
69153;BME280;56261;51.580;4.578;2023-05-02T02:33:43;102245.34;;;10.27;100.00
69153;BME280;56261;51.580;4.578;2023-05-02T02:36:19;102242.56;;;10.28;100.00
69153;BME280;56261;51.580;4.578;2023-05-02T02:39:28;102251.66;;;10.26;100.00
69153;BME280;56261;51.580;4.578;2023-05-02T02:45:07;102257.84;;;10.26;100.00
69153;BME280;56261;51.580;4.578;2023-05-02T02:47:42;102250.97;;;10.24;100.00
69153;BME280;56261;51.580;4.578;2023-05-02T02:50:31;102261.13;;;10.30;100.00
69153;BME280;56261;51.580;4.578;2023-05-02T02:53:05;102261.34;;;10.27;100.00
69153;BME280;56261;51.580;4.578;2023-05-02T02:55:48;102257.72;;;10.28;100.00
69153;BME280;56261;51.580;4.578;2023-05-02T02:58:45;102268.38;;;10.28;100.00
69153;BME280;56261;51.580;4.578;2023-05-02T03:01:17;102271.44;;;10.23;100.00
69153;BME280;56261;51.580;4.578;2023-05-02T03:03:44;102272.88;;;10.06;100.00
69153;BME280;56261;51.580;4.578;2023-05-02T03:06:11;102274.19;;;10.12;100.00
69153;BME280;56261;51.580;4.578;2023-05-02T03:08:38;102287.06;;;10.07;100.00
69153;BME280;56261;51.580;4.578;2023-05-02T03:11:04;102275.81;;;10.03;100.00
69153;BME280;56261;51.580;4.578;2023-05-02T03:13:29;102279.22;;;10.05;100.00
69153;BME280;56261;51.580;4.578;2023-05-02T03:18:48;102292.69;;;10.13;100.00
69153;BME280;56261;51.580;4.578;2023-05-02T03:21:14;102285.09;;;10.09;100.00
69153;BME280;56261;51.580;4.578;2023-05-02T03:23:39;102302.34;;;10.26;100.00
69153;BME280;56261;51.580;4.578;2023-05-02T03:26:05;102295.00;;;10.18;100.00
69153;BME280;56261;51.580;4.578;2023-05-02T03:28:33;102288.41;;;10.22;100.00
69153;BME280;56261;51.580;4.578;2023-05-02T03:30:58;102297.91;;;10.15;100.00
69153;BME280;56261;51.580;4.578;2023-05-02T03:33:24;102295.97;;;10.17;100.00
69153;BME280;56261;51.580;4.578;2023-05-02T03:35:49;102314.50;;;10.18;100.00
69153;BME280;56261;51.580;4.578;2023-05-02T03:38:15;102314.63;;;10.17;100.00
69153;BME280;56261;51.580;4.578;2023-05-02T03:40:40;102321.78;;;10.16;100.00
69153;BME280;56261;51.580;4.578;2023-05-02T03:43:05;102321.47;;;10.10;100.00
69153;BME280;56261;51.580;4.578;2023-05-02T03:45:31;102319.56;;;10.22;100.00
69153;BME280;56261;51.580;4.578;2023-05-02T03:47:56;102331.13;;;10.11;100.00
69153;BME280;56261;51.580;4.578;2023-05-02T03:50:22;102331.69;;;10.05;100.00
69153;BME280;56261;51.580;4.578;2023-05-02T03:52:47;102339.06;;;10.01;100.00
69153;BME280;56261;51.580;4.578;2023-05-02T03:55:13;102342.47;;;10.03;100.00
69153;BME280;56261;51.580;4.578;2023-05-02T03:57:38;102354.69;;;10.06;100.00
69153;BME280;56261;51.580;4.578;2023-05-02T04:00:04;102360.66;;;10.19;100.00
69153;BME280;56261;51.580;4.578;2023-05-02T04:02:30;102362.06;;;10.02;100.00
69153;BME280;56261;51.580;4.578;2023-05-02T04:04:55;102362.63;;;9.96;100.00
69153;BME280;56261;51.580;4.578;2023-05-02T04:07:21;102368.22;;;9.82;100.00
69153;BME280;56261;51.580;4.578;2023-05-02T04:09:46;102372.22;;;9.87;100.00
69153;BME280;56261;51.580;4.578;2023-05-02T04:12:14;102378.66;;;9.85;100.00
69153;BME280;56261;51.580;4.578;2023-05-02T04:14:40;102374.94;;;9.76;100.00
69153;BME280;56261;51.580;4.578;2023-05-02T04:17:05;102379.75;;;9.71;100.00
69153;BME280;56261;51.580;4.578;2023-05-02T04:19:31;102369.81;;;9.73;100.00
69153;BME280;56261;51.580;4.578;2023-05-02T04:21:56;102369.59;;;9.76;100.00
69153;BME280;56261;51.580;4.578;2023-05-02T04:24:22;102384.25;;;9.70;100.00
69153;BME280;56261;51.580;4.578;2023-05-02T04:26:47;102374.66;;;9.79;100.00
69153;BME280;56261;51.580;4.578;2023-05-02T04:29:13;102391.91;;;9.64;100.00
69153;BME280;56261;51.580;4.578;2023-05-02T04:31:38;102399.16;;;9.62;100.00
69153;BME280;56261;51.580;4.578;2023-05-02T04:34:05;102405.84;;;9.56;100.00
69153;BME280;56261;51.580;4.578;2023-05-02T04:36:31;102404.66;;;9.60;100.00
69153;BME280;56261;51.580;4.578;2023-05-02T04:38:56;102411.53;;;9.63;100.00
69153;BME280;56261;51.580;4.578;2023-05-02T04:41:22;102411.66;;;9.61;100.00
69153;BME280;56261;51.580;4.578;2023-05-02T04:43:47;102416.97;;;9.61;100.00
69153;BME280;56261;51.580;4.578;2023-05-02T04:46:13;102401.03;;;9.50;100.00
69153;BME280;56261;51.580;4.578;2023-05-02T04:48:38;102411.28;;;9.66;100.00
69153;BME280;56261;51.580;4.578;2023-05-02T04:51:07;102417.34;;;9.56;100.00
69153;BME280;56261;51.580;4.578;2023-05-02T04:53:32;102416.13;;;9.61;100.00
69153;BME280;56261;51.580;4.578;2023-05-02T04:55:58;102429.19;;;9.64;100.00
69153;BME280;56261;51.580;4.578;2023-05-02T04:58:23;102428.72;;;9.70;100.00
69153;BME280;56261;51.580;4.578;2023-05-02T05:00:48;102443.97;;;9.68;100.00
69153;BME280;56261;51.580;4.578;2023-05-02T05:03:14;102435.25;;;9.66;100.00
69153;BME280;56261;51.580;4.578;2023-05-02T05:05:39;102441.31;;;9.68;100.00
69153;BME280;56261;51.580;4.578;2023-05-02T05:08:04;102448.56;;;9.66;100.00
69153;BME280;56261;51.580;4.578;2023-05-02T05:10:30;102449.56;;;9.65;100.00
69153;BME280;56261;51.580;4.578;2023-05-02T05:12:55;102466.88;;;9.59;100.00
69153;BME280;56261;51.580;4.578;2023-05-02T05:15:21;102472.53;;;9.66;100.00
69153;BME280;56261;51.580;4.578;2023-05-02T05:17:48;102464.53;;;9.77;100.00
69153;BME280;56261;51.580;4.578;2023-05-02T05:20:13;102468.03;;;9.77;100.00
69153;BME280;56261;51.580;4.578;2023-05-02T05:22:39;102474.44;;;9.86;100.00
69153;BME280;56261;51.580;4.578;2023-05-02T05:25:06;102464.78;;;9.74;100.00
69153;BME280;56261;51.580;4.578;2023-05-02T05:27:35;102477.84;;;9.77;100.00
69153;BME280;56261;51.580;4.578;2023-05-02T05:30:02;102478.81;;;9.87;100.00
69153;BME280;56261;51.580;4.578;2023-05-02T05:32:28;102484.22;;;9.97;100.00
69153;BME280;56261;51.580;4.578;2023-05-02T05:34:53;102491.25;;;10.09;100.00
69153;BME280;56261;51.580;4.578;2023-05-02T05:37:19;102490.97;;;10.12;100.00
69153;BME280;56261;51.580;4.578;2023-05-02T05:39:46;102496.72;;;9.96;100.00
69153;BME280;56261;51.580;4.578;2023-05-02T05:42:11;102503.41;;;9.80;100.00
69153;BME280;56261;51.580;4.578;2023-05-02T05:44:37;102506.03;;;9.91;100.00
69153;BME280;56261;51.580;4.578;2023-05-02T05:47:03;102496.94;;;10.05;100.00
69153;BME280;56261;51.580;4.578;2023-05-02T05:49:28;102518.25;;;10.16;100.00
69153;BME280;56261;51.580;4.578;2023-05-02T05:51:54;102513.03;;;10.14;100.00
69153;BME280;56261;51.580;4.578;2023-05-02T05:54:20;102514.22;;;10.22;100.00
69153;BME280;56261;51.580;4.578;2023-05-02T05:56:46;102515.84;;;10.02;100.00
69153;BME280;56261;51.580;4.578;2023-05-02T05:59:12;102529.50;;;10.19;100.00
69153;BME280;56261;51.580;4.578;2023-05-02T06:01:37;102527.06;;;10.28;100.00
69153;BME280;56261;51.580;4.578;2023-05-02T06:04:03;102520.16;;;10.25;100.00
69153;BME280;56261;51.580;4.578;2023-05-02T06:06:29;102530.84;;;10.57;100.00
69153;BME280;56261;51.580;4.578;2023-05-02T06:08:59;102532.78;;;10.55;100.00
69153;BME280;56261;51.580;4.578;2023-05-02T06:11:25;102534.00;;;11.05;100.00
69153;BME280;56261;51.580;4.578;2023-05-02T06:13:51;102534.56;;;10.87;100.00
69153;BME280;56261;51.580;4.578;2023-05-02T06:16:16;102548.47;;;11.23;100.00
69153;BME280;56261;51.580;4.578;2023-05-02T06:18:45;102559.81;;;10.94;100.00
69153;BME280;56261;51.580;4.578;2023-05-02T06:21:11;102564.66;;;10.89;100.00
69153;BME280;56261;51.580;4.578;2023-05-02T06:23:36;102559.28;;;11.21;100.00
69153;BME280;56261;51.580;4.578;2023-05-02T06:26:03;102567.72;;;11.27;100.00
69153;BME280;56261;51.580;4.578;2023-05-02T06:28:29;102566.41;;;11.42;100.00
69153;BME280;56261;51.580;4.578;2023-05-02T06:30:59;102564.59;;;11.83;100.00
69153;BME280;56261;51.580;4.578;2023-05-02T06:33:26;102571.47;;;11.45;100.00
69153;BME280;56261;51.580;4.578;2023-05-02T06:35:53;102575.50;;;11.09;100.00
69153;BME280;56261;51.580;4.578;2023-05-02T06:38:18;102578.81;;;11.01;100.00
69153;BME280;56261;51.580;4.578;2023-05-02T06:40:44;102577.88;;;10.70;100.00
69153;BME280;56261;51.580;4.578;2023-05-02T06:43:11;102592.06;;;10.70;100.00
69153;BME280;56261;51.580;4.578;2023-05-02T06:45:36;102590.00;;;10.63;100.00
69153;BME280;56261;51.580;4.578;2023-05-02T06:48:02;102600.28;;;10.78;100.00
69153;BME280;56261;51.580;4.578;2023-05-02T06:50:28;102594.78;;;10.80;100.00
69153;BME280;56261;51.580;4.578;2023-05-02T06:52:53;102593.50;;;10.74;100.00
69153;BME280;56261;51.580;4.578;2023-05-02T06:55:19;102602.75;;;10.91;100.00
69153;BME280;56261;51.580;4.578;2023-05-02T06:57:45;102601.97;;;10.79;100.00
69153;BME280;56261;51.580;4.578;2023-05-02T07:00:11;102601.75;;;11.04;100.00
69153;BME280;56261;51.580;4.578;2023-05-02T07:02:37;102607.31;;;11.63;100.00
69153;BME280;56261;51.580;4.578;2023-05-02T07:05:02;102607.31;;;11.42;100.00
69153;BME280;56261;51.580;4.578;2023-05-02T07:07:29;102605.06;;;12.50;100.00
69153;BME280;56261;51.580;4.578;2023-05-02T07:09:54;102597.69;;;12.13;100.00
69153;BME280;56261;51.580;4.578;2023-05-02T07:12:19;102602.94;;;11.62;100.00
69153;BME280;56261;51.580;4.578;2023-05-02T07:14:45;102616.81;;;11.56;100.00
69153;BME280;56261;51.580;4.578;2023-05-02T07:17:11;102607.53;;;11.81;100.00
69153;BME280;56261;51.580;4.578;2023-05-02T07:19:36;102614.69;;;11.81;100.00
69153;BME280;56261;51.580;4.578;2023-05-02T07:22:02;102625.19;;;11.42;100.00
69153;BME280;56261;51.580;4.578;2023-05-02T07:24:27;102627.44;;;11.05;100.00
69153;BME280;56261;51.580;4.578;2023-05-02T07:26:53;102631.44;;;11.10;100.00
69153;BME280;56261;51.580;4.578;2023-05-02T07:29:18;102636.50;;;10.92;100.00
69153;BME280;56261;51.580;4.578;2023-05-02T07:31:43;102628.91;;;11.30;100.00
69153;BME280;56261;51.580;4.578;2023-05-02T07:34:09;102636.72;;;11.63;100.00
69153;BME280;56261;51.580;4.578;2023-05-02T07:36:34;102637.44;;;11.66;100.00
69153;BME280;56261;51.580;4.578;2023-05-02T07:39:00;102637.66;;;11.83;100.00
69153;BME280;56261;51.580;4.578;2023-05-02T07:41:25;102647.47;;;12.54;100.00
69153;BME280;56261;51.580;4.578;2023-05-02T07:43:50;102646.97;;;12.90;100.00
69153;BME280;56261;51.580;4.578;2023-05-02T07:46:16;102661.91;;;12.22;100.00
69153;BME280;56261;51.580;4.578;2023-05-02T07:48:41;102668.66;;;11.44;100.00
69153;BME280;56261;51.580;4.578;2023-05-02T07:51:08;102664.88;;;11.47;100.00
69153;BME280;56261;51.580;4.578;2023-05-02T07:53:34;102659.53;;;11.47;100.00
69153;BME280;56261;51.580;4.578;2023-05-02T07:55:59;102655.97;;;11.36;100.00
69153;BME280;56261;51.580;4.578;2023-05-02T07:58:26;102668.88;;;11.52;100.00
69153;BME280;56261;51.580;4.578;2023-05-02T08:00:51;102669.72;;;11.20;100.00
69153;BME280;56261;51.580;4.578;2023-05-02T08:03:16;102665.38;;;11.40;100.00
69153;BME280;56261;51.580;4.578;2023-05-02T08:05:42;102671.50;;;11.94;100.00
69153;BME280;56261;51.580;4.578;2023-05-02T08:08:07;102669.06;;;12.62;100.00
69153;BME280;56261;51.580;4.578;2023-05-02T08:10:32;102658.09;;;12.95;100.00
69153;BME280;56261;51.580;4.578;2023-05-02T08:12:58;102672.22;;;12.37;100.00
69153;BME280;56261;51.580;4.578;2023-05-02T08:15:23;102681.53;;;12.33;100.00
69153;BME280;56261;51.580;4.578;2023-05-02T08:17:49;102683.38;;;12.01;100.00
69153;BME280;56261;51.580;4.578;2023-05-02T08:20:15;102676.66;;;12.57;100.00
69153;BME280;56261;51.580;4.578;2023-05-02T08:22:40;102695.06;;;12.41;100.00
69153;BME280;56261;51.580;4.578;2023-05-02T08:25:06;102698.81;;;11.56;100.00
69153;BME280;56261;51.580;4.578;2023-05-02T08:27:31;102690.19;;;12.65;100.00
69153;BME280;56261;51.580;4.578;2023-05-02T08:29:59;102693.09;;;13.32;100.00
69153;BME280;56261;51.580;4.578;2023-05-02T08:32:25;102702.50;;;11.97;100.00
69153;BME280;56261;51.580;4.578;2023-05-02T08:34:56;102707.44;;;12.01;100.00
69153;BME280;56261;51.580;4.578;2023-05-02T08:37:21;102710.84;;;11.61;100.00
69153;BME280;56261;51.580;4.578;2023-05-02T08:39:47;102716.50;;;11.68;100.00
69153;BME280;56261;51.580;4.578;2023-05-02T08:42:12;102720.66;;;12.03;100.00
69153;BME280;56261;51.580;4.578;2023-05-02T08:44:38;102716.16;;;11.40;100.00
69153;BME280;56261;51.580;4.578;2023-05-02T08:47:04;102722.09;;;11.86;100.00
69153;BME280;56261;51.580;4.578;2023-05-02T08:49:31;102723.06;;;11.85;100.00
69153;BME280;56261;51.580;4.578;2023-05-02T08:51:58;102728.28;;;11.45;100.00
69153;BME280;56261;51.580;4.578;2023-05-02T08:54:24;102731.78;;;11.45;100.00
69153;BME280;56261;51.580;4.578;2023-05-02T08:56:53;102735.97;;;11.38;100.00
69153;BME280;56261;51.580;4.578;2023-05-02T08:59:19;102730.56;;;11.49;100.00
69153;BME280;56261;51.580;4.578;2023-05-02T09:01:48;102737.06;;;11.56;100.00
69153;BME280;56261;51.580;4.578;2023-05-02T09:04:13;102740.22;;;12.24;100.00
69153;BME280;56261;51.580;4.578;2023-05-02T09:06:39;102744.81;;;11.92;100.00
69153;BME280;56261;51.580;4.578;2023-05-02T09:09:05;102744.56;;;12.25;100.00
69153;BME280;56261;51.580;4.578;2023-05-02T09:11:31;102752.56;;;12.16;100.00
69153;BME280;56261;51.580;4.578;2023-05-02T09:13:56;102749.06;;;12.56;100.00
69153;BME280;56261;51.580;4.578;2023-05-02T09:16:28;102747.47;;;12.43;100.00
69153;BME280;56261;51.580;4.578;2023-05-02T09:18:55;102744.53;;;12.16;100.00
69153;BME280;56261;51.580;4.578;2023-05-02T09:21:25;102745.66;;;13.23;100.00
69153;BME280;56261;51.580;4.578;2023-05-02T09:23:55;102744.59;;;13.36;100.00
69153;BME280;56261;51.580;4.578;2023-05-02T09:26:21;102741.34;;;13.52;100.00
69153;BME280;56261;51.580;4.578;2023-05-02T09:28:48;102740.72;;;13.87;100.00
69153;BME280;56261;51.580;4.578;2023-05-02T09:31:16;102742.53;;;13.96;100.00
69153;BME280;56261;51.580;4.578;2023-05-02T09:33:43;102748.75;;;13.97;100.00
69153;BME280;56261;51.580;4.578;2023-05-02T09:36:12;102748.78;;;14.24;100.00
69153;BME280;56261;51.580;4.578;2023-05-02T09:38:45;102765.38;;;14.85;100.00
69153;BME280;56261;51.580;4.578;2023-05-02T09:41:11;102767.16;;;13.62;100.00
69153;BME280;56261;51.580;4.578;2023-05-02T09:43:37;102767.63;;;12.48;100.00
69153;BME280;56261;51.580;4.578;2023-05-02T09:46:07;102768.50;;;12.48;100.00
69153;BME280;56261;51.580;4.578;2023-05-02T09:48:52;102772.63;;;13.22;100.00
69153;BME280;56261;51.580;4.578;2023-05-02T09:51:18;102781.50;;;13.22;100.00
69153;BME280;56261;51.580;4.578;2023-05-02T09:53:44;102771.75;;;13.21;100.00
69153;BME280;56261;51.580;4.578;2023-05-02T09:56:10;102776.03;;;13.34;100.00
69153;BME280;56261;51.580;4.578;2023-05-02T09:58:35;102781.69;;;13.69;100.00
69153;BME280;56261;51.580;4.578;2023-05-02T10:01:01;102779.72;;;12.82;100.00
69153;BME280;56261;51.580;4.578;2023-05-02T10:03:27;102779.56;;;12.43;100.00
69153;BME280;56261;51.580;4.578;2023-05-02T10:05:54;102785.38;;;12.79;100.00
69153;BME280;56261;51.580;4.578;2023-05-02T10:08:21;102779.19;;;12.88;100.00
69153;BME280;56261;51.580;4.578;2023-05-02T10:10:52;102746.69;;;13.61;100.00
69153;BME280;56261;51.580;4.578;2023-05-02T10:13:19;102763.88;;;15.18;100.00
69153;BME280;56261;51.580;4.578;2023-05-02T10:15:48;102773.59;;;14.46;100.00
69153;BME280;56261;51.580;4.578;2023-05-02T10:18:20;102777.03;;;14.38;100.00
69153;BME280;56261;51.580;4.578;2023-05-02T10:21:00;102780.91;;;14.16;100.00
69153;BME280;56261;51.580;4.578;2023-05-02T10:23:29;102779.53;;;13.93;100.00
69153;BME280;56261;51.580;4.578;2023-05-02T10:25:56;102789.88;;;13.29;100.00
69153;BME280;56261;51.580;4.578;2023-05-02T10:28:22;102781.97;;;12.77;100.00
69153;BME280;56261;51.580;4.578;2023-05-02T10:30:49;102768.25;;;13.21;100.00
69153;BME280;56261;51.580;4.578;2023-05-02T10:33:16;102771.66;;;13.33;100.00
69153;BME280;56261;51.580;4.578;2023-05-02T10:35:44;102763.47;;;13.63;100.00
69153;BME280;56261;51.580;4.578;2023-05-02T10:38:16;102780.53;;;13.82;100.00
69153;BME280;56261;51.580;4.578;2023-05-02T10:40:49;102783.59;;;14.53;100.00
69153;BME280;56261;51.580;4.578;2023-05-02T10:43:21;102778.41;;;14.80;100.00
69153;BME280;56261;51.580;4.578;2023-05-02T10:45:47;102785.22;;;14.37;100.00
69153;BME280;56261;51.580;4.578;2023-05-02T10:48:25;102782.06;;;13.94;100.00
69153;BME280;56261;51.580;4.578;2023-05-02T10:50:55;102788.13;;;13.18;100.00
69153;BME280;56261;51.580;4.578;2023-05-02T10:53:26;102789.72;;;13.40;100.00
69153;BME280;56261;51.580;4.578;2023-05-02T10:58:32;102785.16;;;13.12;100.00
69153;BME280;56261;51.580;4.578;2023-05-02T11:03:55;102803.31;;;13.08;100.00
69153;BME280;56261;51.580;4.578;2023-05-02T11:06:22;102790.88;;;13.67;100.00
69153;BME280;56261;51.580;4.578;2023-05-02T11:08:47;102799.72;;;13.97;100.00
69153;BME280;56261;51.580;4.578;2023-05-02T11:11:41;102797.84;;;14.17;100.00
69153;BME280;56261;51.580;4.578;2023-05-02T11:14:08;102802.41;;;13.77;97.49
69153;BME280;56261;51.580;4.578;2023-05-02T11:24:47;102788.22;;;14.24;98.99
69153;BME280;56261;51.580;4.578;2023-05-02T11:30:07;102789.91;;;14.72;100.00
69153;BME280;56261;51.580;4.578;2023-05-02T11:35:22;102788.47;;;15.23;97.02
69153;BME280;56261;51.580;4.578;2023-05-02T11:38:07;102802.78;;;14.68;94.98
69153;BME280;56261;51.580;4.578;2023-05-02T11:40:32;102788.41;;;14.87;97.37
69153;BME280;56261;51.580;4.578;2023-05-02T11:42:59;102798.59;;;14.56;95.27
69153;BME280;56261;51.580;4.578;2023-05-02T11:45:34;102798.75;;;15.10;96.81
69153;BME280;56261;51.580;4.578;2023-05-02T11:48:01;102797.69;;;14.93;97.03
69153;BME280;56261;51.580;4.578;2023-05-02T11:50:28;102803.59;;;15.60;97.64
69153;BME280;56261;51.580;4.578;2023-05-02T11:52:54;102795.69;;;15.41;93.52
69153;BME280;56261;51.580;4.578;2023-05-02T11:55:20;102804.66;;;15.31;95.28
69153;BME280;56261;51.580;4.578;2023-05-02T11:57:45;102809.34;;;14.84;95.09
69153;BME280;56261;51.580;4.578;2023-05-02T12:00:11;102809.59;;;14.63;94.51
69153;BME280;56261;51.580;4.578;2023-05-02T12:02:41;102807.03;;;15.17;92.48
69153;BME280;56261;51.580;4.578;2023-05-02T12:05:13;102810.78;;;14.41;97.03
69153;BME280;56261;51.580;4.578;2023-05-02T12:07:42;102804.38;;;14.51;94.69
69153;BME280;56261;51.580;4.578;2023-05-02T12:10:13;102814.19;;;14.33;100.00
69153;BME280;56261;51.580;4.578;2023-05-02T12:12:41;102820.25;;;14.35;97.07
69153;BME280;56261;51.580;4.578;2023-05-02T12:15:09;102818.78;;;13.94;100.00
69153;BME280;56261;51.580;4.578;2023-05-02T12:17:44;102824.16;;;14.50;100.00
69153;BME280;56261;51.580;4.578;2023-05-02T12:20:10;102819.66;;;14.61;98.14
69153;BME280;56261;51.580;4.578;2023-05-02T12:22:36;102823.03;;;13.96;95.94
69153;BME280;56261;51.580;4.578;2023-05-02T12:25:04;102817.16;;;14.30;99.53
69153;BME280;56261;51.580;4.578;2023-05-02T12:27:30;102820.94;;;14.84;96.49
69153;BME280;56261;51.580;4.578;2023-05-02T12:29:57;102825.22;;;15.05;95.92
69153;BME280;56261;51.580;4.578;2023-05-02T12:32:30;102824.50;;;14.85;96.49
69153;BME280;56261;51.580;4.578;2023-05-02T12:34:57;102831.72;;;15.02;91.00
69153;BME280;56261;51.580;4.578;2023-05-02T12:37:26;102835.81;;;15.34;96.93
69153;BME280;56261;51.580;4.578;2023-05-02T12:39:52;102837.09;;;15.30;94.38
69153;BME280;56261;51.580;4.578;2023-05-02T12:42:20;102847.47;;;14.69;95.62
69153;BME280;56261;51.580;4.578;2023-05-02T12:44:47;102843.81;;;14.61;93.52
69153;BME280;56261;51.580;4.578;2023-05-02T12:47:14;102841.81;;;13.96;96.26
69153;BME280;56261;51.580;4.578;2023-05-02T12:52:18;102840.53;;;14.00;100.00
69153;BME280;56261;51.580;4.578;2023-05-02T12:54:43;102853.94;;;14.77;96.75
69153;BME280;56261;51.580;4.578;2023-05-02T12:57:09;102849.91;;;14.43;93.94
69153;BME280;56261;51.580;4.578;2023-05-02T12:59:35;102845.53;;;15.17;94.08
69153;BME280;56261;51.580;4.578;2023-05-02T13:02:00;102844.38;;;15.20;90.81
69153;BME280;56261;51.580;4.578;2023-05-02T13:04:39;102847.66;;;15.77;91.13
69153;BME280;56261;51.580;4.578;2023-05-02T13:07:05;102840.41;;;15.60;93.04
69153;BME280;56261;51.580;4.578;2023-05-02T13:09:31;102841.47;;;15.31;92.91
69153;BME280;56261;51.580;4.578;2023-05-02T13:11:57;102853.19;;;15.75;87.33
69153;BME280;56261;51.580;4.578;2023-05-02T13:14:27;102849.31;;;15.60;86.41
69153;BME280;56261;51.580;4.578;2023-05-02T13:16:53;102851.16;;;14.96;89.08
69153;BME280;56261;51.580;4.578;2023-05-02T13:19:19;102845.03;;;14.66;92.08
69153;BME280;56261;51.580;4.578;2023-05-02T13:21:45;102852.91;;;14.78;91.30